Abergavenny, United Kingdom
Current Conditions -  °F | °C
As of 5:50 AM on Thursday 23 Oct 2014 (Local Time) from EGFF Reporting Station
Drizzle Drizzle  
Wind Chill: 54°   Ceiling: 500
Heat Index: 54°   Visibility: 3mi
Dew Point: 52°   Wind: 12mph
Humidity: 94%   Direction: 230°SW
Pressure: 30.12"   Gusts: NA
Location:  51.82°N, 3.02°W
Report Text: EGFF 230450Z AUTO 23010KT 5000 DZ OVC005 12/11 Q1020
Loading
Personal Weather Stations






























Interactive Weather Map
Tropical Storm Tracking
New forecast layout! Learn more

10-Day Weather Forecast

Advertisements
Track Severe Weather on mobile